Time;durP1;ratioP1;P1;durP2;ratioP2;P2;SDS_P1;SDS_P2;PMS_P1;PMS_P2;Temp;Humidity;BMP_temperature;BMP_pressure;BME280_temperature;BME280_humidity;BME280_pressure;Samples;Min_cycle;Max_cycle;Signal;HPM_P1;HPM_P2
2022/07/12 00:01:08;;;;;;;4.45;2.00;;;25.70;54.70;;;;;;5002399;28;20517;-69
2022/07/12 00:03:34;;;;;;;4.05;1.80;;;25.70;54.70;;;;;;5005346;28;20411;-68
2022/07/12 00:06:00;;;;;;;3.88;1.75;;;25.70;54.70;;;;;;5005242;28;20556;-68
2022/07/12 00:08:25;;;;;;;4.72;2.10;;;25.70;54.70;;;;;;5006369;28;20076;-69
2022/07/12 00:10:51;;;;;;;3.55;1.70;;;25.70;54.80;;;;;;5005269;28;20117;-69
2022/07/12 00:13:17;;;;;;;5.47;1.88;;;25.70;54.90;;;;;;5000111;28;20526;-69
2022/07/12 00:15:43;;;;;;;4.47;1.83;;;25.70;54.80;;;;;;5004079;28;20136;-68
2022/07/12 00:18:09;;;;;;;3.15;1.70;;;25.70;54.80;;;;;;5003840;28;20034;-68
2022/07/12 00:20:35;;;;;;;5.43;1.95;;;25.70;54.90;;;;;;5004186;28;20113;-68
2022/07/12 00:23:01;;;;;;;3.38;1.70;;;25.60;54.90;;;;;;5003552;28;20187;-59
2022/07/12 00:25:26;;;;;;;4.55;1.80;;;25.60;54.90;;;;;;5003751;28;20109;-59
2022/07/12 00:27:53;;;;;;;5.45;1.95;;;25.60;54.90;;;;;;5006123;28;20058;-59
2022/07/12 00:30:19;;;;;;;3.55;1.80;;;25.60;54.90;;;;;;5004839;28;20037;-59
2022/07/12 00:32:45;;;;;;;4.60;1.80;;;25.60;54.90;;;;;;5007170;28;20469;-59
2022/07/12 00:35:11;;;;;;;3.20;1.80;;;25.60;54.90;;;;;;5005854;28;20479;-59
2022/07/12 00:37:36;;;;;;;3.75;1.80;;;25.60;54.90;;;;;;5004198;28;20084;-59
2022/07/12 00:40:06;;;;;;;5.07;2.00;;;25.60;55.00;;;;;;5004037;28;20091;-58
2022/07/12 00:42:32;;;;;;;3.25;1.73;;;25.60;55.00;;;;;;5005744;28;22032;-59
2022/07/12 00:44:58;;;;;;;4.18;1.70;;;25.60;55.00;;;;;;5007070;28;20129;-59
2022/07/12 00:47:40;;;;;;;3.90;1.90;;;25.60;55.00;;;;;;5004796;28;20046;-58
2022/07/12 00:50:07;;;;;;;4.63;1.75;;;25.60;55.00;;;;;;5005418;28;20025;-59
2022/07/12 00:52:33;;;;;;;4.47;1.85;;;25.60;55.10;;;;;;5007643;28;20084;-59
2022/07/12 00:54:59;;;;;;;3.38;1.80;;;25.60;55.10;;;;;;5020230;28;20643;-59
2022/07/12 00:57:24;;;;;;;4.72;1.85;;;25.60;55.20;;;;;;5005287;28;20125;-59
2022/07/12 00:59:50;;;;;;;2.92;1.77;;;25.50;55.10;;;;;;5006718;28;20474;-59
2022/07/12 01:02:16;;;;;;;3.38;1.80;;;25.50;55.10;;;;;;5005532;28;20041;-59
2022/07/12 01:04:43;;;;;;;2.35;1.60;;;25.50;55.10;;;;;;5001900;28;20053;-59
2022/07/12 01:07:08;;;;;;;5.25;1.80;;;25.50;55.10;;;;;;5005975;28;20072;-59
2022/07/12 01:09:34;;;;;;;3.22;1.80;;;25.50;56.10;;;;;;5005366;28;20498;-59
2022/07/12 01:12:00;;;;;;;3.67;1.90;;;25.50;55.10;;;;;;5007226;28;20133;-59
2022/07/12 01:14:25;;;;;;;3.05;1.60;;;25.50;55.10;;;;;;5005433;28;20410;-59
2022/07/12 01:16:51;;;;;;;3.03;1.77;;;25.50;55.10;;;;;;5021978;28;20383;-59
2022/07/12 01:19:20;;;;;;;3.60;1.75;;;25.50;55.10;;;;;;5004368;28;20631;-59
2022/07/12 01:21:46;;;;;;;4.60;1.90;;;25.50;55.10;;;;;;5005466;28;20066;-58
2022/07/12 01:24:11;;;;;;;3.33;1.70;;;25.50;55.20;;;;;;5000858;28;20041;-59
2022/07/12 01:26:37;;;;;;;3.58;1.65;;;25.50;55.20;;;;;;5006451;28;20026;-59
2022/07/12 01:29:03;;;;;;;3.53;1.50;;;25.40;55.10;;;;;;4988478;28;20046;-59
2022/07/12 01:31:28;;;;;;;3.15;1.83;;;25.40;55.10;;;;;;5003551;28;20018;-59
2022/07/12 01:33:54;;;;;;;3.15;1.70;;;25.50;55.30;;;;;;5002347;28;20034;-59
2022/07/12 01:36:20;;;;;;;3.50;1.70;;;25.40;56.30;;;;;;5005247;28;20529;-59
2022/07/12 01:38:45;;;;;;;3.45;1.70;;;25.40;55.30;;;;;;5023341;28;20038;-59
2022/07/12 01:41:11;;;;;;;3.40;1.60;;;25.40;55.20;;;;;;5006009;28;20034;-59
2022/07/12 01:43:36;;;;;;;3.92;1.60;;;25.40;55.20;;;;;;5007017;28;20048;-59
2022/07/12 01:46:02;;;;;;;2.97;1.60;;;25.40;55.30;;;;;;5009628;28;20113;-58
2022/07/12 01:48:28;;;;;;;4.03;2.00;;;25.40;55.40;;;;;;5008107;28;20144;-59
2022/07/12 01:50:53;;;;;;;4.63;1.70;;;25.40;55.40;;;;;;5006808;28;20453;-59
2022/07/12 01:53:19;;;;;;;3.05;1.58;;;25.40;55.30;;;;;;5007398;28;20401;-59
2022/07/12 01:55:45;;;;;;;2.63;1.70;;;25.40;55.40;;;;;;5024176;28;20025;-59
2022/07/12 01:58:12;;;;;;;3.35;1.67;;;25.40;55.30;;;;;;5019492;28;20080;-59
2022/07/12 02:00:38;;;;;;;2.42;1.65;;;25.40;55.40;;;;;;5021125;28;20025;-59
2022/07/12 02:03:03;;;;;;;4.70;1.73;;;25.40;55.40;;;;;;5008828;28;20079;-59
2022/07/12 02:05:29;;;;;;;2.53;1.65;;;25.30;55.30;;;;;;5007211;28;20026;-59
2022/07/12 02:07:54;;;;;;;4.07;1.67;;;25.30;55.40;;;;;;5006450;28;20083;-59
2022/07/12 02:10:20;;;;;;;2.92;1.55;;;25.40;55.20;;;;;;5009280;28;20104;-59
2022/07/12 02:12:46;;;;;;;3.15;1.70;;;25.30;55.30;;;;;;5007216;28;20021;-59
2022/07/12 02:15:11;;;;;;;2.33;1.60;;;25.30;55.40;;;;;;5007183;28;20033;-59
2022/07/12 02:17:37;;;;;;;2.83;1.70;;;25.30;55.40;;;;;;5006882;28;20041;-59
2022/07/12 02:20:03;;;;;;;3.53;1.73;;;25.30;55.20;;;;;;5007119;28;20054;-59
2022/07/12 02:22:29;;;;;;;4.10;1.70;;;25.30;55.40;;;;;;5008941;28;20657;-59
2022/07/12 02:24:55;;;;;;;3.83;1.48;;;25.30;55.30;;;;;;5005231;28;20061;-58
2022/07/12 02:27:20;;;;;;;3.03;1.73;;;25.30;55.50;;;;;;5008628;28;20057;-59
2022/07/12 02:29:46;;;;;;;3.20;1.80;;;25.30;55.40;;;;;;5007845;28;20030;-58
2022/07/12 02:32:12;;;;;;;2.72;1.80;;;25.30;55.40;;;;;;5008025;28;20118;-59
2022/07/12 02:34:37;;;;;;;4.38;1.70;;;25.30;55.40;;;;;;5007819;28;20030;-59
2022/07/12 02:37:03;;;;;;;2.72;1.60;;;25.30;55.50;;;;;;5008825;28;20180;-59
2022/07/12 02:39:29;;;;;;;2.25;1.50;;;25.30;55.50;;;;;;5007946;28;20030;-59
2022/07/12 02:41:55;;;;;;;3.10;1.67;;;25.30;55.40;;;;;;5006723;28;20112;-59
2022/07/12 02:44:20;;;;;;;3.72;1.70;;;25.30;55.50;;;;;;5008143;28;20038;-59
2022/07/12 02:46:46;;;;;;;2.60;1.30;;;25.20;55.50;;;;;;5006850;28;20026;-59
2022/07/12 02:49:11;;;;;;;3.03;1.50;;;25.30;55.50;;;;;;5008276;28;20026;-59
2022/07/12 02:51:37;;;;;;;2.40;1.52;;;25.30;55.50;;;;;;5006780;28;20044;-59
2022/07/12 02:54:03;;;;;;;2.40;1.60;;;25.20;55.50;;;;;;5007581;28;20088;-58
2022/07/12 02:56:28;;;;;;;3.15;1.65;;;25.20;55.60;;;;;;5007022;28;20375;-59
2022/07/12 02:58:54;;;;;;;3.38;1.60;;;25.20;55.50;;;;;;5003835;28;20029;-59
2022/07/12 03:01:20;;;;;;;2.65;1.60;;;25.20;55.60;;;;;;5006416;28;20048;-59
2022/07/12 03:03:45;;;;;;;3.50;1.67;;;25.20;55.60;;;;;;5007511;28;20488;-59
2022/07/12 03:06:12;;;;;;;2.40;1.40;;;25.20;55.60;;;;;;5008091;28;20030;-59
2022/07/12 03:08:38;;;;;;;2.45;1.50;;;25.20;55.60;;;;;;5008085;28;20030;-59
2022/07/12 03:11:04;;;;;;;2.60;1.63;;;25.20;55.60;;;;;;5007815;28;20037;-59
2022/07/12 03:13:30;;;;;;;3.28;1.50;;;25.20;55.60;;;;;;5008188;28;20536;-59
2022/07/12 03:15:56;;;;;;;2.35;1.50;;;25.20;55.70;;;;;;5007226;28;20053;-59
2022/07/12 03:18:22;;;;;;;2.40;1.35;;;25.20;55.70;;;;;;5004525;28;20058;-58
2022/07/12 03:20:48;;;;;;;2.53;1.58;;;25.20;55.60;;;;;;5006723;28;20065;-59
2022/07/12 03:23:14;;;;;;;2.85;1.80;;;25.20;55.60;;;;;;5006062;28;20045;-59
2022/07/12 03:25:40;;;;;;;2.65;1.60;;;25.20;55.70;;;;;;5006535;28;20037;-59
2022/07/12 03:28:05;;;;;;;2.53;1.60;;;25.20;55.70;;;;;;5005186;28;20085;-59
2022/07/12 03:30:31;;;;;;;2.45;1.60;;;25.10;55.70;;;;;;5003514;28;20029;-59
2022/07/12 03:32:57;;;;;;;2.15;1.48;;;25.10;55.70;;;;;;5004010;28;20034;-59
2022/07/12 03:35:22;;;;;;;2.10;1.50;;;25.10;55.60;;;;;;5005902;28;20033;-59
2022/07/12 03:37:49;;;;;;;2.50;1.60;;;25.10;55.60;;;;;;5006502;28;20486;-59
2022/07/12 03:40:15;;;;;;;2.95;1.30;;;25.10;56.60;;;;;;5008168;28;20018;-58
2022/07/12 03:42:41;;;;;;;2.60;1.50;;;25.10;55.70;;;;;;5006004;28;20036;-59
2022/07/12 03:45:07;;;;;;;2.97;1.50;;;25.10;55.70;;;;;;5006916;28;20045;-59
2022/07/12 03:47:35;;;;;;;1.67;1.50;;;25.10;55.60;;;;;;5004012;28;20061;-58
2022/07/12 03:50:02;;;;;;;2.58;1.50;;;25.10;55.70;;;;;;5004990;28;20030;-59
2022/07/12 03:52:27;;;;;;;3.60;1.55;;;25.10;55.70;;;;;;5007604;28;20032;-59
2022/07/12 03:54:53;;;;;;;2.53;1.50;;;25.10;55.70;;;;;;5007005;28;20108;-59
2022/07/12 03:57:19;;;;;;;2.63;1.50;;;25.10;55.70;;;;;;5003978;28;20026;-59
2022/07/12 03:59:45;;;;;;;3.28;1.50;;;25.00;55.70;;;;;;5004043;28;20030;-59
2022/07/12 04:02:11;;;;;;;2.47;1.50;;;25.00;55.70;;;;;;5004193;28;20026;-59
2022/07/12 04:04:36;;;;;;;1.85;1.40;;;25.00;55.60;;;;;;5005563;28;20080;-59
2022/07/12 04:07:02;;;;;;;4.30;1.70;;;25.00;55.70;;;;;;5006313;28;20033;-58
2022/07/12 04:09:28;;;;;;;2.75;1.60;;;25.00;55.70;;;;;;5008124;28;20030;-59
2022/07/12 04:11:53;;;;;;;2.45;1.50;;;25.00;55.70;;;;;;5007956;28;20026;-59
2022/07/12 04:14:19;;;;;;;4.05;1.33;;;25.00;55.70;;;;;;5006564;28;20030;-59
2022/07/12 04:16:45;;;;;;;2.67;1.45;;;25.00;55.70;;;;;;5005893;28;20089;-59
2022/07/12 04:19:10;;;;;;;3.05;1.50;;;25.00;55.70;;;;;;5005602;28;20084;-59
2022/07/12 04:21:37;;;;;;;3.20;1.70;;;25.00;55.70;;;;;;5005990;28;20021;-59
2022/07/12 04:24:03;;;;;;;2.83;1.50;;;25.00;55.70;;;;;;5006251;28;20034;-59
2022/07/12 04:26:28;;;;;;;1.73;1.40;;;25.00;55.70;;;;;;5000320;28;20054;-59
2022/07/12 04:28:54;;;;;;;3.40;1.63;;;25.00;55.70;;;;;;5002155;28;20410;-59
2022/07/12 04:31:20;;;;;;;3.85;1.50;;;25.00;55.80;;;;;;5006791;28;20018;-59
2022/07/12 04:33:45;;;;;;;2.20;1.40;;;25.00;55.80;;;;;;5007804;28;20030;-59
2022/07/12 04:36:11;;;;;;;3.03;1.50;;;24.90;55.70;;;;;;5006981;28;20156;-58
2022/07/12 04:38:37;;;;;;;4.25;1.50;;;25.00;55.80;;;;;;5003735;28;20481;-59
2022/07/12 04:41:03;;;;;;;2.00;1.50;;;25.00;55.70;;;;;;5005679;28;20630;-59
2022/07/12 04:43:29;;;;;;;2.28;1.55;;;25.00;55.70;;;;;;5005511;28;20038;-59
2022/07/12 04:45:55;;;;;;;2.20;1.30;;;24.90;55.80;;;;;;5004985;28;20494;-59
2022/07/12 04:48:20;;;;;;;4.00;1.60;;;24.90;55.70;;;;;;5003167;28;20053;-59
2022/07/12 04:50:46;;;;;;;2.10;1.30;;;24.90;55.80;;;;;;5005656;28;20029;-58
2022/07/12 04:53:12;;;;;;;3.45;1.60;;;24.90;55.80;;;;;;5004737;28;20030;-59
2022/07/12 04:55:37;;;;;;;1.95;1.40;;;24.90;55.80;;;;;;5005395;28;20030;-59
2022/07/12 04:58:04;;;;;;;2.50;1.30;;;24.90;55.90;;;;;;5002496;28;20629;-59
2022/07/12 05:00:30;;;;;;;1.90;1.50;;;24.90;55.90;;;;;;5004035;28;20406;-59
2022/07/12 05:02:55;;;;;;;3.00;1.38;;;24.90;55.90;;;;;;5001459;28;20018;-59
2022/07/12 05:05:21;;;;;;;2.38;1.40;;;24.90;55.90;;;;;;5005456;28;20026;-59
2022/07/12 05:07:47;;;;;;;2.70;1.30;;;24.80;55.80;;;;;;4995761;28;20033;-58
2022/07/12 05:10:13;;;;;;;2.63;1.27;;;24.80;55.80;;;;;;5000004;28;20084;-59
2022/07/12 05:12:39;;;;;;;2.55;1.60;;;24.90;55.90;;;;;;5000801;28;20469;-59
2022/07/12 05:15:05;;;;;;;3.72;1.60;;;24.90;55.90;;;;;;5001874;28;20030;-59
2022/07/12 05:17:31;;;;;;;2.47;1.40;;;24.80;55.90;;;;;;5003067;28;20061;-59
2022/07/12 05:19:56;;;;;;;3.05;1.42;;;24.90;56.00;;;;;;5007383;28;20538;-59
2022/07/12 05:22:22;;;;;;;2.35;1.60;;;24.80;55.90;;;;;;5007419;28;20075;-59
2022/07/12 05:24:48;;;;;;;3.72;1.55;;;24.90;56.10;;;;;;5009235;28;20036;-59
2022/07/12 05:27:13;;;;;;;3.90;1.42;;;24.80;56.10;;;;;;5009548;28;20107;-59
2022/07/12 05:29:39;;;;;;;3.30;1.55;;;24.80;56.10;;;;;;5008279;28;20538;-59
2022/07/12 05:32:05;;;;;;;2.95;1.33;;;24.80;56.20;;;;;;5008162;28;20553;-59
2022/07/12 05:34:31;;;;;;;2.97;1.40;;;24.80;56.20;;;;;;5008471;28;20121;-59
2022/07/12 05:36:56;;;;;;;4.07;1.55;;;24.80;56.20;;;;;;5008827;28;20080;-59
2022/07/12 05:39:22;;;;;;;2.33;1.48;;;24.80;56.20;;;;;;5008195;28;20517;-59
2022/07/12 05:41:48;;;;;;;3.05;1.50;;;24.80;56.30;;;;;;5008206;28;20494;-59
2022/07/12 05:44:15;;;;;;;3.95;1.40;;;24.80;56.20;;;;;;5007696;28;20093;-59
2022/07/12 05:46:41;;;;;;;3.25;1.67;;;24.80;56.20;;;;;;5009556;28;20026;-59
2022/07/12 05:49:06;;;;;;;4.35;1.70;;;24.80;56.30;;;;;;5007142;28;20037;-59
2022/07/12 05:54:16;;;;;;;4.10;1.80;;;24.80;56.30;;;;;;5008602;28;20453;-59
2022/07/12 05:56:42;;;;;;;2.25;1.65;;;24.80;56.40;;;;;;5009677;28;20033;-59
2022/07/12 05:59:08;;;;;;;4.95;1.70;;;24.70;56.30;;;;;;5007864;28;20029;-59
2022/07/12 06:01:34;;;;;;;3.20;1.60;;;24.70;56.30;;;;;;5009007;28;20055;-59
2022/07/12 06:03:59;;;;;;;3.97;1.50;;;24.80;56.40;;;;;;5008061;28;20044;-59
2022/07/12 06:06:25;;;;;;;4.57;1.67;;;24.80;56.40;;;;;;5008937;28;20021;-59
2022/07/12 06:08:51;;;;;;;3.00;1.52;;;24.80;56.40;;;;;;5006198;28;20022;-58
2022/07/12 06:11:16;;;;;;;5.22;1.67;;;24.70;56.40;;;;;;5008345;28;20030;-59
2022/07/12 06:13:42;;;;;;;4.22;1.73;;;24.70;56.40;;;;;;5007354;28;20025;-59
2022/07/12 06:16:10;;;;;;;2.78;1.52;;;24.70;56.40;;;;;;5007057;28;20108;-59
2022/07/12 06:18:35;;;;;;;5.15;1.60;;;24.70;56.40;;;;;;5009522;28;20058;-59
2022/07/12 06:21:01;;;;;;;4.13;1.60;;;24.70;56.40;;;;;;5005393;28;20033;-59
2022/07/12 06:23:27;;;;;;;5.07;1.70;;;24.70;56.50;;;;;;5006617;28;20129;-59
2022/07/12 06:25:52;;;;;;;4.15;1.77;;;24.70;56.40;;;;;;5008812;28;20030;-59
2022/07/12 06:28:18;;;;;;;3.78;1.58;;;24.70;56.60;;;;;;5007648;28;20025;-59
2022/07/12 06:30:44;;;;;;;3.45;1.70;;;24.70;56.60;;;;;;5007578;28;21005;-59
2022/07/12 06:33:09;;;;;;;4.43;1.65;;;24.70;56.60;;;;;;5008513;28;20443;-59
2022/07/12 06:35:35;;;;;;;4.00;1.70;;;24.70;56.60;;;;;;5007638;28;20617;-59
2022/07/12 06:38:01;;;;;;;2.83;1.60;;;24.70;56.60;;;;;;5007760;28;20546;-59
2022/07/12 06:40:27;;;;;;;2.92;1.50;;;24.70;56.60;;;;;;5007717;28;20034;-58
2022/07/12 06:42:52;;;;;;;3.83;1.67;;;24.70;56.60;;;;;;5007570;28;20084;-59
2022/07/12 06:45:18;;;;;;;4.32;1.73;;;24.70;56.60;;;;;;5007164;28;20455;-59
2022/07/12 06:47:44;;;;;;;3.63;1.50;;;24.70;56.60;;;;;;5007664;28;20542;-59
2022/07/12 06:50:10;;;;;;;4.65;1.50;;;24.70;56.70;;;;;;5007649;28;20635;-58
2022/07/12 06:52:35;;;;;;;3.83;1.75;;;24.60;56.60;;;;;;5008162;28;20104;-59
2022/07/12 06:55:01;;;;;;;4.78;1.85;;;24.70;56.70;;;;;;5004295;28;20450;-59
2022/07/12 06:57:27;;;;;;;4.18;1.60;;;24.70;56.60;;;;;;5005821;28;20037;-59
2022/07/12 06:59:53;;;;;;;2.70;1.42;;;24.60;56.70;;;;;;5008038;28;20041;-59
2022/07/12 07:02:19;;;;;;;4.20;1.63;;;24.70;56.70;;;;;;5007822;28;20368;-59
2022/07/12 07:04:44;;;;;;;3.33;1.50;;;24.70;56.70;;;;;;5008722;28;20038;-58
2022/07/12 07:07:10;;;;;;;3.25;1.65;;;24.60;56.70;;;;;;5006209;28;20026;-58
2022/07/12 07:09:36;;;;;;;3.97;1.70;;;24.70;56.70;;;;;;5008087;28;20497;-58
2022/07/12 07:12:02;;;;;;;4.07;1.88;;;24.60;56.70;;;;;;5005983;28;20030;-59
2022/07/12 07:14:27;;;;;;;2.40;1.42;;;24.60;56.60;;;;;;5007390;28;20058;-59
2022/07/12 07:16:53;;;;;;;5.35;1.60;;;24.70;56.70;;;;;;5007165;28;20026;-59
2022/07/12 07:19:19;;;;;;;3.50;1.38;;;24.70;57.70;;;;;;5007675;28;20148;-59
2022/07/12 07:21:45;;;;;;;3.13;1.50;;;24.70;56.70;;;;;;5005660;28;20034;-59
2022/07/12 07:24:10;;;;;;;2.65;1.60;;;24.60;56.60;;;;;;5008659;28;20133;-59
2022/07/12 07:26:36;;;;;;;3.42;1.65;;;24.60;56.60;;;;;;5004639;28;20164;-59
2022/07/12 07:31:46;;;;;;;4.35;1.70;;;24.60;56.70;;;;;;5007125;28;20033;-58
2022/07/12 07:34:12;;;;;;;3.40;1.40;;;24.60;56.70;;;;;;5004610;28;20041;-58
2022/07/12 07:36:37;;;;;;;3.20;1.58;;;24.60;56.70;;;;;;5007649;28;20144;-58
2022/07/12 07:39:03;;;;;;;2.80;1.60;;;24.60;56.60;;;;;;5007929;28;20026;-59
2022/07/12 07:41:29;;;;;;;3.90;1.65;;;24.60;56.70;;;;;;5006234;28;20109;-58
2022/07/12 07:43:54;;;;;;;4.30;1.73;;;24.60;56.70;;;;;;5004010;28;20069;-58
2022/07/12 07:46:20;;;;;;;3.30;1.60;;;24.70;56.70;;;;;;5004035;28;20026;-59
2022/07/12 07:48:46;;;;;;;3.17;1.60;;;24.70;56.70;;;;;;5006510;28;20045;-59
2022/07/12 07:51:11;;;;;;;3.28;1.75;;;24.70;56.80;;;;;;5006797;28;20052;-59
2022/07/12 07:53:37;;;;;;;2.55;1.60;;;24.70;56.80;;;;;;5004576;28;20030;-60
2022/07/12 07:56:03;;;;;;;3.72;1.65;;;24.60;56.80;;;;;;5005892;28;20026;-59
2022/07/12 07:58:28;;;;;;;2.63;1.45;;;24.60;56.80;;;;;;5007425;28;20040;-59
2022/07/12 08:00:54;;;;;;;3.53;1.58;;;24.70;56.80;;;;;;5004871;28;20022;-58
2022/07/12 08:03:20;;;;;;;4.15;1.55;;;24.70;56.80;;;;;;5006758;28;20049;-59
2022/07/12 08:05:46;;;;;;;3.33;1.50;;;24.60;56.70;;;;;;5006008;28;20068;-58
2022/07/12 08:08:12;;;;;;;2.60;1.50;;;24.60;56.70;;;;;;5005414;28;20034;-59
2022/07/12 08:10:38;;;;;;;2.92;1.70;;;24.60;56.70;;;;;;5003120;28;20041;-59
2022/07/12 08:13:03;;;;;;;2.85;1.65;;;24.70;56.70;;;;;;5006058;28;20088;-59
2022/07/12 08:15:29;;;;;;;2.67;1.40;;;24.60;56.60;;;;;;5005221;28;20026;-58
2022/07/12 08:17:55;;;;;;;3.38;1.60;;;24.60;56.60;;;;;;5004390;28;20028;-59
2022/07/12 08:20:22;;;;;;;2.30;1.60;;;24.70;56.70;;;;;;5004922;28;20053;-59
2022/07/12 08:22:47;;;;;;;2.55;1.30;;;24.70;56.70;;;;;;5004851;28;20029;-59
2022/07/12 08:25:13;;;;;;;3.42;1.60;;;24.70;56.60;;;;;;5007834;28;20033;-58
2022/07/12 08:27:39;;;;;;;3.63;1.48;;;24.70;56.60;;;;;;5006972;28;20034;-58
2022/07/12 08:30:05;;;;;;;2.70;1.40;;;24.70;57.70;;;;;;5006587;28;20513;-59
2022/07/12 08:32:31;;;;;;;4.57;1.70;;;24.70;56.70;;;;;;5004184;28;20029;-59
2022/07/12 08:34:56;;;;;;;4.68;1.60;;;24.70;56.70;;;;;;5004127;28;20026;-59
2022/07/12 08:37:22;;;;;;;2.85;1.60;;;24.70;56.90;;;;;;5005265;28;20438;-58
2022/07/12 08:39:48;;;;;;;2.58;1.55;;;24.70;56.70;;;;;;5003874;28;20466;-58
2022/07/12 08:42:18;;;;;;;3.25;1.40;;;24.70;56.70;;;;;;5003200;28;20025;-59
2022/07/12 08:44:44;;;;;;;2.63;1.50;;;24.70;56.80;;;;;;5003892;28;20065;-59
2022/07/12 08:47:09;;;;;;;4.70;1.73;;;24.70;56.60;;;;;;5006463;28;20049;-60
2022/07/12 08:49:36;;;;;;;1.70;1.40;;;24.80;56.90;;;;;;5008706;28;20034;-59
2022/07/12 08:52:26;;;;;;;2.85;1.50;;;24.80;57.00;;;;;;5009973;28;20072;-60
2022/07/12 08:54:52;;;;;;;2.17;1.50;;;24.80;57.00;;;;;;5024054;28;20041;-59
2022/07/12 08:57:30;;;;;;;3.20;1.55;;;24.80;56.90;;;;;;5009526;28;20022;-58
2022/07/12 08:59:59;;;;;;;2.17;1.38;;;24.80;56.80;;;;;;5009053;28;20030;-59
2022/07/12 09:02:26;;;;;;;4.10;1.80;;;24.90;56.70;;;;;;5011397;28;20056;-59
2022/07/12 09:05:08;;;;;;;3.20;1.65;;;24.90;56.70;;;;;;5006993;28;20046;-59
2022/07/12 09:07:36;;;;;;;2.60;1.48;;;24.90;56.70;;;;;;5008082;28;20044;-59
2022/07/12 09:10:08;;;;;;;3.63;1.60;;;25.00;56.80;;;;;;5006791;28;20066;-59
2022/07/12 09:12:37;;;;;;;2.00;1.48;;;25.00;57.80;;;;;;5007333;28;20433;-59
2022/07/12 09:15:15;;;;;;;3.33;1.70;;;25.00;56.70;;;;;;5007805;28;20030;-59
2022/07/12 09:17:46;;;;;;;5.50;1.60;;;25.00;57.00;;;;;;5009698;28;20597;-59
2022/07/12 09:20:11;;;;;;;6.03;2.25;;;25.00;57.10;;;;;;5005494;28;20053;-58
2022/07/12 09:22:37;;;;;;;20.30;4.60;;;25.10;57.10;;;;;;5003995;28;20030;-59
2022/07/12 09:25:15;;;;;;;55.25;11.57;;;25.10;57.30;;;;;;5005229;28;20034;-59
2022/07/12 09:27:50;;;;;;;38.90;8.63;;;25.20;58.10;;;;;;5009830;28;20487;-59
2022/07/12 09:30:17;;;;;;;26.52;5.18;;;25.20;58.50;;;;;;5007237;28;20030;-59
2022/07/12 09:38:21;;;;;;;188.48;55.83;;;25.20;57.80;;;;;;5006477;28;20902;-59
2022/07/12 09:40:47;;;;;;;57.75;17.20;;;25.20;57.90;;;;;;5006057;28;20030;-59
2022/07/12 09:43:14;;;;;;;39.05;12.27;;;25.30;58.00;;;;;;5021396;28;20041;-59
2022/07/12 09:45:40;;;;;;;35.17;11.40;;;25.30;58.00;;;;;;4990603;28;20056;-60
2022/07/12 09:48:06;;;;;;;32.45;10.80;;;25.30;58.00;;;;;;5008671;28;20040;-59
2022/07/12 09:50:32;;;;;;;30.65;10.05;;;25.30;57.90;;;;;;5005672;28;20030;-59
2022/07/12 09:52:58;;;;;;;30.50;10.02;;;25.30;57.80;;;;;;4991990;28;20422;-59
2022/07/12 09:55:24;;;;;;;30.65;9.77;;;25.30;57.90;;;;;;5004701;28;20034;-60
2022/07/12 09:57:50;;;;;;;30.92;10.02;;;25.40;58.10;;;;;;5006755;28;20379;-59
2022/07/12 10:00:16;;;;;;;26.52;8.38;;;25.40;58.20;;;;;;5004851;28;20018;-59
2022/07/12 10:02:41;;;;;;;22.00;7.75;;;25.40;58.40;;;;;;5005329;28;20567;-59
2022/07/12 10:05:08;;;;;;;22.63;7.40;;;25.40;58.50;;;;;;5003478;28;20030;-59
2022/07/12 10:07:33;;;;;;;25.85;7.85;;;25.40;58.30;;;;;;5005714;28;20034;-59
2022/07/12 10:09:59;;;;;;;21.50;7.45;;;25.40;58.40;;;;;;5009732;28;20029;-59
2022/07/12 10:12:25;;;;;;;17.95;6.30;;;25.40;58.60;;;;;;5004435;28;20064;-59
2022/07/12 10:15:14;;;;;;;23.00;7.20;;;25.50;58.40;;;;;;5022046;28;20028;-59
2022/07/12 10:17:40;;;;;;;22.23;7.18;;;25.50;58.80;;;;;;4990391;28;20057;-59
2022/07/12 10:20:17;;;;;;;19.83;7.43;;;25.50;58.90;;;;;;5020255;28;20066;-59
2022/07/12 10:22:42;;;;;;;17.90;6.03;;;25.50;60.20;;;;;;5007786;28;20039;-59
2022/07/12 10:25:37;;;;;;;17.35;5.78;;;25.60;59.50;;;;;;5003730;28;20045;-59
2022/07/12 10:28:03;;;;;;;17.40;6.20;;;25.60;59.10;;;;;;4991857;28;20046;-59
2022/07/12 10:30:29;;;;;;;18.80;6.18;;;25.60;59.10;;;;;;5006202;28;20022;-59
2022/07/12 10:32:59;;;;;;;13.93;5.20;;;25.60;59.20;;;;;;5006501;28;20078;-59
2022/07/12 10:35:29;;;;;;;15.52;5.07;;;25.60;58.90;;;;;;5014582;28;20040;-59
2022/07/12 10:38:16;;;;;;;15.18;4.72;;;25.60;58.80;;;;;;5003756;28;20030;-59
2022/07/12 10:40:45;;;;;;;16.92;5.10;;;25.70;58.70;;;;;;5001366;28;20029;-59
2022/07/12 10:43:10;;;;;;;12.48;4.38;;;25.70;58.20;;;;;;5003346;28;20050;-59
2022/07/12 10:45:38;;;;;;;11.43;4.03;;;25.70;57.60;;;;;;5006676;28;20088;-59
2022/07/12 10:48:12;;;;;;;11.75;4.00;;;25.80;57.30;;;;;;5006742;28;20039;-59
2022/07/12 10:50:43;;;;;;;12.38;4.65;;;25.80;56.40;;;;;;5008627;28;20030;-59
2022/07/12 10:53:18;;;;;;;14.88;4.60;;;25.80;56.80;;;;;;5005968;28;20402;-60
2022/07/12 10:56:06;;;;;;;14.23;4.75;;;25.80;57.20;;;;;;5005596;28;20118;-59
2022/07/12 10:58:42;;;;;;;16.55;5.25;;;25.80;57.20;;;;;;5006465;28;20611;-59
2022/07/12 11:01:27;;;;;;;13.30;5.03;;;25.80;57.30;;;;;;5006542;28;20030;-59
2022/07/12 11:04:13;;;;;;;14.35;5.45;;;25.80;57.30;;;;;;5005547;28;20034;-59
2022/07/12 11:06:40;;;;;;;15.23;5.38;;;25.80;57.30;;;;;;5004557;28;20022;-59
2022/07/12 11:09:07;;;;;;;17.20;5.45;;;25.80;57.30;;;;;;5004670;28;20490;-59
2022/07/12 11:11:41;;;;;;;15.63;5.38;;;25.80;57.20;;;;;;5007523;28;20486;-59
2022/07/12 11:14:06;;;;;;;16.92;5.72;;;25.80;58.20;;;;;;5005427;28;20466;-59
2022/07/12 11:16:32;;;;;;;16.15;5.70;;;25.80;57.20;;;;;;5003827;28;20112;-59
2022/07/12 11:18:58;;;;;;;14.05;4.95;;;25.90;57.30;;;;;;5006188;28;20109;-59
2022/07/12 11:21:24;;;;;;;14.45;5.45;;;25.80;57.20;;;;;;5007380;28;20125;-59
2022/07/12 11:23:50;;;;;;;17.45;5.68;;;25.90;57.20;;;;;;5005628;28;20041;-59
2022/07/12 11:26:16;;;;;;;13.05;5.18;;;25.90;57.10;;;;;;5006192;28;20038;-59
2022/07/12 11:28:42;;;;;;;14.82;5.25;;;25.90;57.10;;;;;;5006683;28;20041;-59
2022/07/12 11:31:12;;;;;;;12.30;5.30;;;25.80;57.10;;;;;;5003138;28;20113;-60
2022/07/12 11:33:42;;;;;;;14.05;5.75;;;25.90;57.10;;;;;;5003111;28;20033;-59
2022/07/12 11:36:09;;;;;;;15.15;5.35;;;25.90;57.10;;;;;;5003998;28;20080;-59
2022/07/12 11:38:35;;;;;;;14.63;5.00;;;25.90;57.10;;;;;;5007616;28;20129;-59
2022/07/12 11:41:02;;;;;;;12.52;4.80;;;25.90;57.00;;;;;;5005553;28;20112;-59
2022/07/12 11:43:28;;;;;;;13.95;4.97;;;25.90;57.10;;;;;;5005949;28;20099;-59
2022/07/12 11:45:54;;;;;;;13.32;4.90;;;25.90;57.00;;;;;;5007135;28;20686;-59
2022/07/12 11:48:20;;;;;;;14.15;4.90;;;25.90;57.00;;;;;;5006534;28;20092;-59
2022/07/12 11:50:46;;;;;;;12.18;4.88;;;26.00;57.10;;;;;;5006151;28;20018;-59
2022/07/12 11:53:22;;;;;;;13.25;4.90;;;26.00;57.10;;;;;;5003005;28;20045;-59
2022/07/12 11:55:48;;;;;;;12.18;4.57;;;26.00;57.00;;;;;;5003315;28;20027;-59
2022/07/12 11:58:15;;;;;;;13.23;4.72;;;26.00;57.10;;;;;;5006091;28;20076;-59
2022/07/12 12:00:40;;;;;;;13.45;4.38;;;26.00;57.00;;;;;;5019799;28;20117;-60
2022/07/12 12:03:06;;;;;;;13.45;4.60;;;26.00;57.00;;;;;;5005106;28;20566;-59
2022/07/12 12:05:33;;;;;;;13.20;4.68;;;26.00;57.00;;;;;;5005429;28;20034;-59
2022/07/12 12:07:59;;;;;;;13.73;4.55;;;26.10;57.00;;;;;;5002784;28;20113;-59
2022/07/12 12:10:24;;;;;;;11.52;5.07;;;26.10;57.00;;;;;;5004020;28;20121;-59
2022/07/12 12:12:54;;;;;;;10.85;4.20;;;26.00;56.90;;;;;;5006530;28;20026;-59
2022/07/12 12:15:20;;;;;;;11.50;4.50;;;26.10;57.00;;;;;;5006544;28;20084;-59
2022/07/12 12:17:56;;;;;;;13.00;4.50;;;26.10;57.00;;;;;;5006275;28;20029;-59
2022/07/12 12:20:24;;;;;;;11.43;4.57;;;26.10;56.90;;;;;;5005479;28;20457;-59
2022/07/12 12:22:51;;;;;;;12.20;4.43;;;26.10;58.00;;;;;;5006674;28;20403;-59
2022/07/12 12:25:16;;;;;;;9.38;3.88;;;26.10;57.00;;;;;;5004091;28;20038;-59
2022/07/12 12:27:43;;;;;;;10.05;4.20;;;26.10;57.00;;;;;;5005226;28;20034;-59
2022/07/12 12:30:09;;;;;;;10.75;4.28;;;26.10;56.90;;;;;;5007706;28;20100;-59
2022/07/12 12:32:57;;;;;;;12.30;4.47;;;26.10;56.90;;;;;;5005376;28;20491;-59
2022/07/12 12:35:36;;;;;;;11.65;4.30;;;26.20;57.00;;;;;;5005602;28;20048;-59
2022/07/12 12:38:11;;;;;;;11.77;4.35;;;26.20;57.00;;;;;;5003759;28;20116;-59
2022/07/12 12:40:37;;;;;;;12.45;4.07;;;26.20;57.00;;;;;;5004931;28;20517;-59
2022/07/12 12:43:12;;;;;;;10.27;3.80;;;26.20;57.00;;;;;;5005276;28;20046;-59
2022/07/12 12:45:56;;;;;;;9.80;3.90;;;26.20;57.00;;;;;;5005488;28;20033;-59
2022/07/12 12:48:48;;;;;;;12.00;4.20;;;26.20;57.00;;;;;;5005733;28;20398;-59
2022/07/12 12:51:14;;;;;;;11.95;4.20;;;26.30;57.00;;;;;;5001999;28;20029;-59
2022/07/12 12:53:40;;;;;;;10.05;3.90;;;26.30;57.00;;;;;;5005189;28;20038;-59